sensor_id;sensor_type;location;lat;lon;timestamp;pressure;altitude;pressure_sealevel;temperature;humidity
62548;BME280;48602;45.192;5.722;2022-11-20T00:01:45;98984.97;;;7.77;79.20
62548;BME280;48602;45.192;5.722;2022-11-20T00:04:11;98988.50;;;7.76;79.37
62548;BME280;48602;45.192;5.722;2022-11-20T00:06:37;98982.41;;;7.75;79.32
62548;BME280;48602;45.192;5.722;2022-11-20T00:09:02;98982.41;;;7.75;79.12
62548;BME280;48602;45.192;5.722;2022-11-20T00:11:29;98982.41;;;7.75;79.12
62548;BME280;48602;45.192;5.722;2022-11-20T00:13:59;98993.84;;;7.72;79.48
62548;BME280;48602;45.192;5.722;2022-11-20T00:16:27;98985.09;;;7.72;79.62
62548;BME280;48602;45.192;5.722;2022-11-20T00:18:53;99003.59;;;7.69;79.89
62548;BME280;48602;45.192;5.722;2022-11-20T00:21:23;98991.38;;;7.68;80.01
62548;BME280;48602;45.192;5.722;2022-11-20T00:23:50;98994.03;;;7.66;80.19
62548;BME280;48602;45.192;5.722;2022-11-20T00:26:18;98997.56;;;7.65;79.97
62548;BME280;48602;45.192;5.722;2022-11-20T00:28:48;99008.94;;;7.66;80.04
62548;BME280;48602;45.192;5.722;2022-11-20T00:31:15;99006.25;;;7.67;79.98
62548;BME280;48602;45.192;5.722;2022-11-20T00:33:41;99001.06;;;7.66;80.23
62548;BME280;48602;45.192;5.722;2022-11-20T00:36:22;99008.06;;;7.65;80.23
62548;BME280;48602;45.192;5.722;2022-11-20T00:38:51;99008.09;;;7.64;79.98
62548;BME280;48602;45.192;5.722;2022-11-20T00:41:17;99005.50;;;7.64;79.98
62548;BME280;48602;45.192;5.722;2022-11-20T00:43:43;99009.00;;;7.63;80.14
62548;BME280;48602;45.192;5.722;2022-11-20T00:46:13;99010.66;;;7.67;80.38
62548;BME280;48602;45.192;5.722;2022-11-20T00:48:39;99019.50;;;7.63;80.20
62548;BME280;48602;45.192;5.722;2022-11-20T00:51:05;99009.97;;;7.60;80.35
62548;BME280;48602;45.192;5.722;2022-11-20T00:53:30;99008.06;;;7.65;80.27
62548;BME280;48602;45.192;5.722;2022-11-20T00:56:02;99031.72;;;7.64;80.28
62548;BME280;48602;45.192;5.722;2022-11-20T00:58:31;99024.75;;;7.63;80.25
62548;BME280;48602;45.192;5.722;2022-11-20T01:01:05;99024.78;;;7.61;80.12
62548;BME280;48602;45.192;5.722;2022-11-20T01:03:32;99031.00;;;7.59;80.37
62548;BME280;48602;45.192;5.722;2022-11-20T01:06:11;99032.75;;;7.58;80.95
62548;BME280;48602;45.192;5.722;2022-11-20T01:08:38;99029.31;;;7.56;81.01
62548;BME280;48602;45.192;5.722;2022-11-20T01:11:06;99025.88;;;7.54;81.52
62548;BME280;48602;45.192;5.722;2022-11-20T01:13:32;99028.50;;;7.54;81.33
62548;BME280;48602;45.192;5.722;2022-11-20T01:16:09;99027.59;;;7.55;80.63
62548;BME280;48602;45.192;5.722;2022-11-20T01:18:37;99038.00;;;7.58;80.03
62548;BME280;48602;45.192;5.722;2022-11-20T01:21:06;99046.59;;;7.63;80.73
62548;BME280;48602;45.192;5.722;2022-11-20T01:23:34;99036.06;;;7.65;80.85
62548;BME280;48602;45.192;5.722;2022-11-20T01:26:01;99061.44;;;7.64;80.70
62548;BME280;48602;45.192;5.722;2022-11-20T01:28:28;99057.91;;;7.65;80.25
62548;BME280;48602;45.192;5.722;2022-11-20T01:30:53;99052.66;;;7.65;79.81
62548;BME280;48602;45.192;5.722;2022-11-20T01:33:19;99049.13;;;7.66;79.46
62548;BME280;48602;45.192;5.722;2022-11-20T01:35:44;99056.13;;;7.67;79.15
62548;BME280;48602;45.192;5.722;2022-11-20T01:38:10;99047.28;;;7.70;79.13
62548;BME280;48602;45.192;5.722;2022-11-20T01:40:35;99057.72;;;7.71;78.87
62548;BME280;48602;45.192;5.722;2022-11-20T01:43:20;99060.34;;;7.71;78.87
62548;BME280;48602;45.192;5.722;2022-11-20T01:48:22;99052.41;;;7.73;79.32
62548;BME280;48602;45.192;5.722;2022-11-20T01:50:50;99060.28;;;7.73;79.02
62548;BME280;48602;45.192;5.722;2022-11-20T01:53:18;99061.19;;;7.72;79.03
62548;BME280;48602;45.192;5.722;2022-11-20T01:55:50;99047.22;;;7.71;79.10
62548;BME280;48602;45.192;5.722;2022-11-20T01:58:19;99048.16;;;7.70;79.30
62548;BME280;48602;45.192;5.722;2022-11-20T02:00:45;99045.56;;;7.69;79.32
62548;BME280;48602;45.192;5.722;2022-11-20T02:03:12;99046.47;;;7.68;79.15
62548;BME280;48602;45.192;5.722;2022-11-20T02:06:00;99043.91;;;7.66;79.37
62548;BME280;48602;45.192;5.722;2022-11-20T02:08:28;99052.63;;;7.67;79.34
62548;BME280;48602;45.192;5.722;2022-11-20T02:10:53;99058.78;;;7.66;78.87
62548;BME280;48602;45.192;5.722;2022-11-20T02:13:19;99043.94;;;7.65;79.32
62548;BME280;48602;45.192;5.722;2022-11-20T02:16:03;99043.03;;;7.66;79.18
62548;BME280;48602;45.192;5.722;2022-11-20T02:18:29;99044.84;;;7.64;78.96
62548;BME280;48602;45.192;5.722;2022-11-20T02:21:40;99051.84;;;7.63;79.14
62548;BME280;48602;45.192;5.722;2022-11-20T02:24:15;99057.09;;;7.63;79.48
62548;BME280;48602;45.192;5.722;2022-11-20T02:26:50;99051.94;;;7.60;79.10
62548;BME280;48602;45.192;5.722;2022-11-20T02:29:19;99053.63;;;7.63;79.14
62548;BME280;48602;45.192;5.722;2022-11-20T02:31:47;99044.03;;;7.62;78.55
62548;BME280;48602;45.192;5.722;2022-11-20T02:34:13;99054.50;;;7.62;78.98
62548;BME280;48602;45.192;5.722;2022-11-20T02:36:41;99043.13;;;7.63;78.66
62548;BME280;48602;45.192;5.722;2022-11-20T02:39:09;99044.06;;;7.60;78.53
62548;BME280;48602;45.192;5.722;2022-11-20T02:41:37;99038.91;;;7.57;78.46
62548;BME280;48602;45.192;5.722;2022-11-20T02:44:03;99051.28;;;7.54;78.44
62548;BME280;48602;45.192;5.722;2022-11-20T02:46:29;99051.34;;;7.51;78.40
62548;BME280;48602;45.192;5.722;2022-11-20T02:48:55;99050.53;;;7.49;78.18
62548;BME280;48602;45.192;5.722;2022-11-20T02:51:21;99059.38;;;7.45;78.45
62548;BME280;48602;45.192;5.722;2022-11-20T02:53:46;99055.22;;;7.38;78.33
62548;BME280;48602;45.192;5.722;2022-11-20T02:56:12;99057.13;;;7.32;78.43
62548;BME280;48602;45.192;5.722;2022-11-20T02:58:37;99059.81;;;7.29;78.55
62548;BME280;48602;45.192;5.722;2022-11-20T03:01:03;99060.81;;;7.25;78.47
62548;BME280;48602;45.192;5.722;2022-11-20T03:03:28;99052.22;;;7.20;78.39
62548;BME280;48602;45.192;5.722;2022-11-20T03:05:54;99057.59;;;7.16;78.30
62548;BME280;48602;45.192;5.722;2022-11-20T03:08:19;99055.03;;;7.13;78.73
62548;BME280;48602;45.192;5.722;2022-11-20T03:10:44;99048.97;;;7.11;78.62
62548;BME280;48602;45.192;5.722;2022-11-20T03:13:10;99052.56;;;7.07;78.40
62548;BME280;48602;45.192;5.722;2022-11-20T03:15:36;99055.25;;;7.05;78.41
62548;BME280;48602;45.192;5.722;2022-11-20T03:18:02;99052.72;;;7.02;78.73
62548;BME280;48602;45.192;5.722;2022-11-20T03:20:28;99056.22;;;7.03;78.77
62548;BME280;48602;45.192;5.722;2022-11-20T03:22:54;99065.81;;;7.02;78.63
62548;BME280;48602;45.192;5.722;2022-11-20T03:25:20;99061.44;;;7.03;78.81
62548;BME280;48602;45.192;5.722;2022-11-20T03:27:45;99058.81;;;7.03;78.90
62548;BME280;48602;45.192;5.722;2022-11-20T03:30:11;99071.88;;;7.04;79.03
62548;BME280;48602;45.192;5.722;2022-11-20T03:32:36;99065.78;;;7.04;79.37
62548;BME280;48602;45.192;5.722;2022-11-20T03:35:02;99071.03;;;7.04;80.21
62548;BME280;48602;45.192;5.722;2022-11-20T03:37:27;99070.09;;;7.05;80.48
62548;BME280;48602;45.192;5.722;2022-11-20T03:39:53;99067.41;;;7.08;80.64
62548;BME280;48602;45.192;5.722;2022-11-20T03:42:18;99067.28;;;7.12;79.69
62548;BME280;48602;45.192;5.722;2022-11-20T03:45:02;99066.31;;;7.16;79.91
62548;BME280;48602;45.192;5.722;2022-11-20T03:47:28;99064.56;;;7.17;79.41
62548;BME280;48602;45.192;5.722;2022-11-20T03:49:53;99075.03;;;7.17;79.30
62548;BME280;48602;45.192;5.722;2022-11-20T03:52:19;99070.66;;;7.17;79.19
62548;BME280;48602;45.192;5.722;2022-11-20T03:54:44;99075.00;;;7.18;78.77
62548;BME280;48602;45.192;5.722;2022-11-20T03:57:09;99076.75;;;7.18;78.62
62548;BME280;48602;45.192;5.722;2022-11-20T03:59:35;99077.63;;;7.18;78.67
62548;BME280;48602;45.192;5.722;2022-11-20T04:02:00;99082.00;;;7.18;78.50
62548;BME280;48602;45.192;5.722;2022-11-20T04:04:25;99082.88;;;7.18;78.26
62548;BME280;48602;45.192;5.722;2022-11-20T04:06:51;99104.75;;;7.17;78.49
62548;BME280;48602;45.192;5.722;2022-11-20T04:09:16;99084.78;;;7.12;78.76
62548;BME280;48602;45.192;5.722;2022-11-20T04:11:42;99101.53;;;7.06;78.70
62548;BME280;48602;45.192;5.722;2022-11-20T04:14:13;99099.88;;;7.04;78.47
62548;BME280;48602;45.192;5.722;2022-11-20T04:16:39;99106.88;;;7.03;78.64
62548;BME280;48602;45.192;5.722;2022-11-20T04:19:08;99098.13;;;7.03;78.47
62548;BME280;48602;45.192;5.722;2022-11-20T04:21:34;99100.84;;;6.99;78.69
62548;BME280;48602;45.192;5.722;2022-11-20T04:24:00;99107.09;;;6.94;78.65
62548;BME280;48602;45.192;5.722;2022-11-20T04:26:27;99120.34;;;6.88;78.72
62548;BME280;48602;45.192;5.722;2022-11-20T04:28:53;99111.72;;;6.84;78.83
62548;BME280;48602;45.192;5.722;2022-11-20T04:31:21;99126.56;;;6.84;78.95
62548;BME280;48602;45.192;5.722;2022-11-20T04:33:47;99125.75;;;6.82;78.80
62548;BME280;48602;45.192;5.722;2022-11-20T04:36:21;99127.53;;;6.80;79.02
62548;BME280;48602;45.192;5.722;2022-11-20T04:38:58;99111.81;;;6.80;79.11
62548;BME280;48602;45.192;5.722;2022-11-20T04:41:26;99116.19;;;6.79;79.39
62548;BME280;48602;45.192;5.722;2022-11-20T04:43:57;99115.41;;;6.76;79.32
62548;BME280;48602;45.192;5.722;2022-11-20T04:46:29;99112.78;;;6.76;79.07
62548;BME280;48602;45.192;5.722;2022-11-20T04:48:55;99115.38;;;6.77;79.31
62548;BME280;48602;45.192;5.722;2022-11-20T04:51:20;99111.78;;;6.81;79.24
62548;BME280;48602;45.192;5.722;2022-11-20T04:53:45;99115.22;;;6.83;79.37
62548;BME280;48602;45.192;5.722;2022-11-20T04:56:12;99121.25;;;6.87;79.09
62548;BME280;48602;45.192;5.722;2022-11-20T04:58:38;99120.31;;;6.89;79.06
62548;BME280;48602;45.192;5.722;2022-11-20T05:01:15;99124.59;;;6.92;79.19
62548;BME280;48602;45.192;5.722;2022-11-20T05:03:42;99124.59;;;6.92;79.20
62548;BME280;48602;45.192;5.722;2022-11-20T05:06:09;99129.78;;;6.95;79.01
62548;BME280;48602;45.192;5.722;2022-11-20T05:08:35;99134.09;;;6.97;79.07
62548;BME280;48602;45.192;5.722;2022-11-20T05:11:03;99119.22;;;6.98;79.13
62548;BME280;48602;45.192;5.722;2022-11-20T05:13:29;99123.63;;;6.96;79.20
62548;BME280;48602;45.192;5.722;2022-11-20T05:15:54;99128.88;;;6.96;78.95
62548;BME280;48602;45.192;5.722;2022-11-20T05:18:19;99128.00;;;6.95;78.96
62548;BME280;48602;45.192;5.722;2022-11-20T05:20:45;99128.84;;;6.97;79.11
62548;BME280;48602;45.192;5.722;2022-11-20T05:23:10;99132.28;;;6.99;78.73
62548;BME280;48602;45.192;5.722;2022-11-20T05:25:35;99130.53;;;7.00;79.22
62548;BME280;48602;45.192;5.722;2022-11-20T05:28:01;99131.44;;;6.99;79.00
62548;BME280;48602;45.192;5.722;2022-11-20T05:30:26;99132.41;;;6.95;79.23
62548;BME280;48602;45.192;5.722;2022-11-20T05:32:52;99130.75;;;6.91;79.28
62548;BME280;48602;45.192;5.722;2022-11-20T05:35:17;99121.19;;;6.88;79.21
62548;BME280;48602;45.192;5.722;2022-11-20T05:37:42;99125.53;;;6.89;79.25
62548;BME280;48602;45.192;5.722;2022-11-20T05:40:08;99132.50;;;6.90;79.07
62548;BME280;48602;45.192;5.722;2022-11-20T05:42:34;99123.78;;;6.90;79.29
62548;BME280;48602;45.192;5.722;2022-11-20T05:45:02;99129.03;;;6.90;78.94
62548;BME280;48602;45.192;5.722;2022-11-20T05:47:32;99127.25;;;6.90;79.00
62548;BME280;48602;45.192;5.722;2022-11-20T05:49:57;99122.88;;;6.91;79.26
62548;BME280;48602;45.192;5.722;2022-11-20T05:52:22;99122.03;;;6.90;79.66
62548;BME280;48602;45.192;5.722;2022-11-20T05:54:48;99121.16;;;6.90;79.60
62548;BME280;48602;45.192;5.722;2022-11-20T05:57:13;99126.50;;;6.87;79.45
62548;BME280;48602;45.192;5.722;2022-11-20T05:59:39;99130.03;;;6.86;79.33
62548;BME280;48602;45.192;5.722;2022-11-20T06:02:04;99130.03;;;6.86;79.44
62548;BME280;48602;45.192;5.722;2022-11-20T06:04:29;99125.69;;;6.85;79.61
62548;BME280;48602;45.192;5.722;2022-11-20T06:06:55;99118.72;;;6.84;79.31
62548;BME280;48602;45.192;5.722;2022-11-20T06:09:20;99119.63;;;6.83;79.53
62548;BME280;48602;45.192;5.722;2022-11-20T06:11:45;99120.47;;;6.83;79.30
62548;BME280;48602;45.192;5.722;2022-11-20T06:14:11;99130.03;;;6.86;79.26
62548;BME280;48602;45.192;5.722;2022-11-20T06:16:36;99127.44;;;6.84;79.48
62548;BME280;48602;45.192;5.722;2022-11-20T06:19:02;99123.09;;;6.83;79.56
62548;BME280;48602;45.192;5.722;2022-11-20T06:21:27;99127.47;;;6.83;79.80
62548;BME280;48602;45.192;5.722;2022-11-20T06:23:53;99117.94;;;6.80;79.77
62548;BME280;48602;45.192;5.722;2022-11-20T06:26:21;99128.47;;;6.77;79.84
62548;BME280;48602;45.192;5.722;2022-11-20T06:28:46;99123.22;;;6.77;79.74
62548;BME280;48602;45.192;5.722;2022-11-20T06:31:14;99131.13;;;6.76;79.22
62548;BME280;48602;45.192;5.722;2022-11-20T06:33:41;99132.88;;;6.75;79.79
62548;BME280;48602;45.192;5.722;2022-11-20T06:36:07;99137.25;;;6.75;79.20
62548;BME280;48602;45.192;5.722;2022-11-20T06:38:32;99136.44;;;6.73;79.81
62548;BME280;48602;45.192;5.722;2022-11-20T06:40:58;99135.63;;;6.71;79.54
62548;BME280;48602;45.192;5.722;2022-11-20T06:43:23;99132.16;;;6.70;79.57
62548;BME280;48602;45.192;5.722;2022-11-20T06:45:53;99126.09;;;6.68;79.61
62548;BME280;48602;45.192;5.722;2022-11-20T06:48:19;99125.25;;;6.66;79.47
62548;BME280;48602;45.192;5.722;2022-11-20T06:50:45;99132.22;;;6.67;79.47
62548;BME280;48602;45.192;5.722;2022-11-20T06:53:10;99133.13;;;6.66;79.79
62548;BME280;48602;45.192;5.722;2022-11-20T06:55:36;99133.16;;;6.64;79.65
62548;BME280;48602;45.192;5.722;2022-11-20T06:58:01;99135.81;;;6.63;79.51
62548;BME280;48602;45.192;5.722;2022-11-20T07:00:26;99140.16;;;6.64;79.62
62548;BME280;48602;45.192;5.722;2022-11-20T07:02:52;99142.78;;;6.64;79.87
62548;BME280;48602;45.192;5.722;2022-11-20T07:05:17;99150.69;;;6.61;79.95
62548;BME280;48602;45.192;5.722;2022-11-20T07:07:43;99137.69;;;6.56;80.08
62548;BME280;48602;45.192;5.722;2022-11-20T07:10:08;99143.84;;;6.55;80.26
62548;BME280;48602;45.192;5.722;2022-11-20T07:12:34;99141.25;;;6.54;80.38
62548;BME280;48602;45.192;5.722;2022-11-20T07:14:59;99154.41;;;6.52;80.51
62548;BME280;48602;45.192;5.722;2022-11-20T07:19:48;99152.81;;;6.45;80.66
62548;BME280;48602;45.192;5.722;2022-11-20T07:22:13;99162.41;;;6.46;80.25
62548;BME280;48602;45.192;5.722;2022-11-20T07:24:39;99158.81;;;6.50;81.10
62548;BME280;48602;45.192;5.722;2022-11-20T07:27:04;99169.31;;;6.49;81.15
62548;BME280;48602;45.192;5.722;2022-11-20T07:29:29;99163.22;;;6.48;80.99
62548;BME280;48602;45.192;5.722;2022-11-20T07:31:55;99164.03;;;6.52;81.57
62548;BME280;48602;45.192;5.722;2022-11-20T07:34:21;99170.03;;;6.55;81.37
62548;BME280;48602;45.192;5.722;2022-11-20T07:36:47;99169.22;;;6.53;81.23
62548;BME280;48602;45.192;5.722;2022-11-20T07:39:12;99177.09;;;6.53;81.15
62548;BME280;48602;45.192;5.722;2022-11-20T07:41:37;99181.38;;;6.56;81.09
62548;BME280;48602;45.192;5.722;2022-11-20T07:44:03;99180.44;;;6.58;81.28
62548;BME280;48602;45.192;5.722;2022-11-20T07:46:28;99184.69;;;6.64;81.15
62548;BME280;48602;45.192;5.722;2022-11-20T07:48:54;99182.81;;;6.69;80.93
62548;BME280;48602;45.192;5.722;2022-11-20T07:51:19;99185.31;;;6.74;80.61
62548;BME280;48602;45.192;5.722;2022-11-20T07:53:44;99182.59;;;6.78;80.94
62548;BME280;48602;45.192;5.722;2022-11-20T07:56:10;99178.06;;;6.86;80.82
62548;BME280;48602;45.192;5.722;2022-11-20T07:58:35;99183.97;;;6.93;80.88
62548;BME280;48602;45.192;5.722;2022-11-20T08:01:05;99181.25;;;6.97;80.42
62548;BME280;48602;45.192;5.722;2022-11-20T08:03:31;99179.31;;;7.04;80.22
62548;BME280;48602;45.192;5.722;2022-11-20T08:05:59;99180.13;;;7.08;79.81
62548;BME280;48602;45.192;5.722;2022-11-20T08:08:25;99178.25;;;7.13;80.00
62548;BME280;48602;45.192;5.722;2022-11-20T08:10:50;99179.00;;;7.18;79.57
62548;BME280;48602;45.192;5.722;2022-11-20T08:13:16;99177.06;;;7.24;79.52
62548;BME280;48602;45.192;5.722;2022-11-20T08:16:00;99177.78;;;7.31;79.31
62548;BME280;48602;45.192;5.722;2022-11-20T08:18:26;99183.72;;;7.38;79.00
62548;BME280;48602;45.192;5.722;2022-11-20T08:20:51;99182.69;;;7.43;78.82
62548;BME280;48602;45.192;5.722;2022-11-20T08:23:17;99181.72;;;7.47;78.61
62548;BME280;48602;45.192;5.722;2022-11-20T08:25:42;99181.66;;;7.50;78.25
62548;BME280;48602;45.192;5.722;2022-11-20T08:28:09;99187.59;;;7.55;78.43
62548;BME280;48602;45.192;5.722;2022-11-20T08:30:35;99185.78;;;7.59;78.21
62548;BME280;48602;45.192;5.722;2022-11-20T08:33:04;99200.50;;;7.64;78.24
62548;BME280;48602;45.192;5.722;2022-11-20T08:35:33;99194.22;;;7.70;77.92
62548;BME280;48602;45.192;5.722;2022-11-20T08:38:00;99187.06;;;7.75;77.88
62548;BME280;48602;45.192;5.722;2022-11-20T08:40:25;99183.47;;;7.79;77.95
62548;BME280;48602;45.192;5.722;2022-11-20T08:42:50;99177.25;;;7.83;77.55
62548;BME280;48602;45.192;5.722;2022-11-20T08:45:18;99185.78;;;7.90;77.19
62548;BME280;48602;45.192;5.722;2022-11-20T08:47:44;99186.53;;;7.95;77.42
62548;BME280;48602;45.192;5.722;2022-11-20T08:50:11;99177.66;;;7.99;76.99
62548;BME280;48602;45.192;5.722;2022-11-20T08:52:36;99180.16;;;8.03;77.14
62548;BME280;48602;45.192;5.722;2022-11-20T08:55:03;99186.97;;;8.09;77.51
62548;BME280;48602;45.192;5.722;2022-11-20T08:57:31;99175.41;;;8.16;76.97
62548;BME280;48602;45.192;5.722;2022-11-20T08:59:57;99178.69;;;8.23;76.76
62548;BME280;48602;45.192;5.722;2022-11-20T09:02:22;99172.41;;;8.28;76.46
62548;BME280;48602;45.192;5.722;2022-11-20T09:04:48;99167.06;;;8.33;76.23
62548;BME280;48602;45.192;5.722;2022-11-20T09:07:13;99173.09;;;8.36;76.11
62548;BME280;48602;45.192;5.722;2022-11-20T09:09:38;99179.94;;;8.40;75.28
62548;BME280;48602;45.192;5.722;2022-11-20T09:12:04;99179.81;;;8.45;75.65
62548;BME280;48602;45.192;5.722;2022-11-20T09:14:29;99178.84;;;8.48;76.03
62548;BME280;48602;45.192;5.722;2022-11-20T09:16:56;99179.63;;;8.51;75.89
62548;BME280;48602;45.192;5.722;2022-11-20T09:19:23;99182.16;;;8.54;75.77
62548;BME280;48602;45.192;5.722;2022-11-20T09:21:49;99184.78;;;8.54;75.30
62548;BME280;48602;45.192;5.722;2022-11-20T09:24:14;99183.00;;;8.55;75.02
62548;BME280;48602;45.192;5.722;2022-11-20T09:26:40;99186.44;;;8.57;75.13
62548;BME280;48602;45.192;5.722;2022-11-20T09:29:05;99182.81;;;8.61;74.66
62548;BME280;48602;45.192;5.722;2022-11-20T09:31:31;99184.38;;;8.68;74.31
62548;BME280;48602;45.192;5.722;2022-11-20T09:33:56;99187.59;;;8.76;74.09
62548;BME280;48602;45.192;5.722;2022-11-20T09:36:22;99190.03;;;8.82;73.58
62548;BME280;48602;45.192;5.722;2022-11-20T09:38:48;99201.41;;;8.83;72.63
62548;BME280;48602;45.192;5.722;2022-11-20T09:41:36;99198.75;;;8.84;72.14
62548;BME280;48602;45.192;5.722;2022-11-20T09:44:37;99201.31;;;8.86;72.46
62548;BME280;48602;45.192;5.722;2022-11-20T09:47:13;99207.19;;;8.94;71.95
62548;BME280;48602;45.192;5.722;2022-11-20T09:55:22;99206.13;;;8.99;71.81
62548;BME280;48602;45.192;5.722;2022-11-20T09:57:50;99203.44;;;9.01;71.94
62548;BME280;48602;45.192;5.722;2022-11-20T10:00:17;99224.44;;;9.02;70.65
62548;BME280;48602;45.192;5.722;2022-11-20T10:02:56;99212.22;;;9.01;70.64
62548;BME280;48602;45.192;5.722;2022-11-20T10:05:39;99216.50;;;9.04;70.72
62548;BME280;48602;45.192;5.722;2022-11-20T10:30:22;99242.81;;;9.30;67.47
62548;BME280;48602;45.192;5.722;2022-11-20T10:33:05;99227.78;;;9.34;67.33
62548;BME280;48602;45.192;5.722;2022-11-20T10:35:43;99229.34;;;9.39;67.18
62548;BME280;48602;45.192;5.722;2022-11-20T10:40:49;99244.16;;;9.42;65.36
62548;BME280;48602;45.192;5.722;2022-11-20T10:43:26;99249.38;;;9.43;66.03
62548;BME280;48602;45.192;5.722;2022-11-20T10:45:58;99227.47;;;9.43;65.33
62548;BME280;48602;45.192;5.722;2022-11-20T10:48:27;99227.41;;;9.44;67.01
62548;BME280;48602;45.192;5.722;2022-11-20T10:56:25;99232.59;;;9.48;64.38
62548;BME280;48602;45.192;5.722;2022-11-20T11:01:46;99226.34;;;9.50;65.15
62548;BME280;48602;45.192;5.722;2022-11-20T11:06:48;99215.44;;;9.61;65.67
62548;BME280;48602;45.192;5.722;2022-11-20T11:09:26;99219.59;;;9.68;64.91
62548;BME280;48602;45.192;5.722;2022-11-20T11:11:55;99229.09;;;9.72;64.82
62548;BME280;48602;45.192;5.722;2022-11-20T11:14:20;99220.28;;;9.73;64.48
62548;BME280;48602;45.192;5.722;2022-11-20T11:16:53;99225.53;;;9.73;64.72
62548;BME280;48602;45.192;5.722;2022-11-20T11:19:19;99229.94;;;9.72;64.96
62548;BME280;48602;45.192;5.722;2022-11-20T11:21:53;99227.31;;;9.72;64.87
62548;BME280;48602;45.192;5.722;2022-11-20T11:24:24;99214.16;;;9.72;64.41
62548;BME280;48602;45.192;5.722;2022-11-20T11:26:56;99203.56;;;9.74;64.68
62548;BME280;48602;45.192;5.722;2022-11-20T11:29:22;99192.84;;;9.80;64.51
62548;BME280;48602;45.192;5.722;2022-11-20T11:31:49;99185.75;;;9.82;63.45
62548;BME280;48602;45.192;5.722;2022-11-20T11:34:16;99176.06;;;9.83;63.98
62548;BME280;48602;45.192;5.722;2022-11-20T11:36:52;99171.63;;;9.85;63.45
62548;BME280;48602;45.192;5.722;2022-11-20T11:39:20;99163.78;;;9.83;63.97
62548;BME280;48602;45.192;5.722;2022-11-20T11:41:47;99168.00;;;9.87;61.95
62548;BME280;48602;45.192;5.722;2022-11-20T11:44:21;99147.81;;;9.88;63.12
62548;BME280;48602;45.192;5.722;2022-11-20T11:47:21;99143.16;;;9.94;62.93
62548;BME280;48602;45.192;5.722;2022-11-20T11:49:48;99144.66;;;10.01;62.30
62548;BME280;48602;45.192;5.722;2022-11-20T11:52:17;99132.03;;;10.09;62.56
62548;BME280;48602;45.192;5.722;2022-11-20T11:55:03;99114.09;;;10.21;61.39
62548;BME280;48602;45.192;5.722;2022-11-20T11:57:44;99111.97;;;10.30;61.81
62548;BME280;48602;45.192;5.722;2022-11-20T12:00:14;99113.50;;;10.36;60.86
62548;BME280;48602;45.192;5.722;2022-11-20T12:10:45;99105.97;;;10.70;59.67
62548;BME280;48602;45.192;5.722;2022-11-20T12:13:37;99106.44;;;10.80;59.95
62548;BME280;48602;45.192;5.722;2022-11-20T12:16:12;99103.56;;;10.86;60.00
62548;BME280;48602;45.192;5.722;2022-11-20T12:18:38;99095.44;;;10.91;58.81
62548;BME280;48602;45.192;5.722;2022-11-20T12:26:54;99080.66;;;11.07;58.29
62548;BME280;48602;45.192;5.722;2022-11-20T12:39:49;99054.69;;;10.98;58.55
62548;BME280;48602;45.192;5.722;2022-11-20T12:45:23;99022.91;;;11.01;57.85
62548;BME280;48602;45.192;5.722;2022-11-20T12:59:06;99000.94;;;11.21;58.68
62548;BME280;48602;45.192;5.722;2022-11-20T13:01:47;98994.50;;;11.26;58.25
62548;BME280;48602;45.192;5.722;2022-11-20T13:06:46;98994.97;;;11.36;58.16
62548;BME280;48602;45.192;5.722;2022-11-20T13:09:15;98994.72;;;11.40;58.04
62548;BME280;48602;45.192;5.722;2022-11-20T13:11:50;99000.66;;;11.45;57.91
62548;BME280;48602;45.192;5.722;2022-11-20T13:17:40;99011.81;;;11.52;57.72
62548;BME280;48602;45.192;5.722;2022-11-20T13:20:17;99007.25;;;11.56;57.79
62548;BME280;48602;45.192;5.722;2022-11-20T13:22:51;99008.81;;;11.60;57.12
62548;BME280;48602;45.192;5.722;2022-11-20T13:27:51;98992.91;;;11.61;56.90
62548;BME280;48602;45.192;5.722;2022-11-20T13:30:20;99001.81;;;11.59;56.09
62548;BME280;48602;45.192;5.722;2022-11-20T13:32:54;99002.75;;;11.58;55.87
62548;BME280;48602;45.192;5.722;2022-11-20T13:35:40;99014.22;;;11.57;56.18
62548;BME280;48602;45.192;5.722;2022-11-20T13:38:07;99004.63;;;11.56;55.75
62548;BME280;48602;45.192;5.722;2022-11-20T13:40:35;99019.59;;;11.55;56.01
62548;BME280;48602;45.192;5.722;2022-11-20T13:43:04;99027.44;;;11.57;55.83
62548;BME280;48602;45.192;5.722;2022-11-20T13:45:32;99020.31;;;11.59;55.39
62548;BME280;48602;45.192;5.722;2022-11-20T13:48:19;99014.03;;;11.61;55.29
62548;BME280;48602;45.192;5.722;2022-11-20T13:54:01;98999.56;;;11.70;55.27
62548;BME280;48602;45.192;5.722;2022-11-20T13:57:04;98999.56;;;11.70;55.44
62548;BME280;48602;45.192;5.722;2022-11-20T13:59:33;98996.97;;;11.68;56.37
62548;BME280;48602;45.192;5.722;2022-11-20T14:01:59;99003.47;;;11.61;55.97
62548;BME280;48602;45.192;5.722;2022-11-20T14:04:29;99000.34;;;11.53;54.56
62548;BME280;48602;45.192;5.722;2022-11-20T14:06:56;98996.25;;;11.46;54.95
62548;BME280;48602;45.192;5.722;2022-11-20T14:09:27;99004.59;;;11.37;54.98
62548;BME280;48602;45.192;5.722;2022-11-20T14:11:53;99011.13;;;11.28;55.90
62548;BME280;48602;45.192;5.722;2022-11-20T14:14:21;99012.34;;;11.21;55.74
62548;BME280;48602;45.192;5.722;2022-11-20T14:16:47;99003.84;;;11.14;55.76
62548;BME280;48602;45.192;5.722;2022-11-20T14:21:45;98997.19;;;11.06;56.38
62548;BME280;48602;45.192;5.722;2022-11-20T14:24:12;98995.69;;;11.00;55.55
62548;BME280;48602;45.192;5.722;2022-11-20T14:26:43;98989.72;;;10.95;56.29
62548;BME280;48602;45.192;5.722;2022-11-20T14:29:20;98996.84;;;10.93;56.58
62548;BME280;48602;45.192;5.722;2022-11-20T14:31:48;99001.28;;;10.93;56.05
62548;BME280;48602;45.192;5.722;2022-11-20T14:34:27;98985.50;;;10.91;56.81
62548;BME280;48602;45.192;5.722;2022-11-20T14:37:05;99003.84;;;10.94;56.11
62548;BME280;48602;45.192;5.722;2022-11-20T14:39:41;99011.75;;;10.94;55.84
62548;BME280;48602;45.192;5.722;2022-11-20T14:42:27;99013.53;;;10.94;56.82
62548;BME280;48602;45.192;5.722;2022-11-20T14:44:55;99017.09;;;10.93;56.53
62548;BME280;48602;45.192;5.722;2022-11-20T14:47:25;99006.59;;;10.91;55.93
62548;BME280;48602;45.192;5.722;2022-11-20T14:49:52;99006.66;;;10.90;55.84
62548;BME280;48602;45.192;5.722;2022-11-20T14:52:20;98994.56;;;10.86;56.29
62548;BME280;48602;45.192;5.722;2022-11-20T14:54:49;98993.84;;;10.82;57.29
62548;BME280;48602;45.192;5.722;2022-11-20T15:00:22;98978.50;;;10.71;57.04